sensor_id;sensor_type;location;lat;lon;timestamp;pressure;altitude;pressure_sealevel;temperature;humidity
64080;BME280;51042;49.696;10.808;2023-02-10T00:01:14;100283.94;;;-7.20;100.00
64080;BME280;51042;49.696;10.808;2023-02-10T00:03:39;100271.16;;;-7.23;100.00
64080;BME280;51042;49.696;10.808;2023-02-10T00:06:05;100274.66;;;-7.28;100.00
64080;BME280;51042;49.696;10.808;2023-02-10T00:08:30;100281.56;;;-7.32;100.00
64080;BME280;51042;49.696;10.808;2023-02-10T00:10:59;100286.41;;;-7.34;100.00
64080;BME280;51042;49.696;10.808;2023-02-10T00:13:25;100282.66;;;-7.38;100.00
64080;BME280;51042;49.696;10.808;2023-02-10T00:15:51;100276.50;;;-7.38;100.00
64080;BME280;51042;49.696;10.808;2023-02-10T00:18:16;100269.63;;;-7.39;100.00
64080;BME280;51042;49.696;10.808;2023-02-10T00:20:41;100272.28;;;-7.39;100.00
64080;BME280;51042;49.696;10.808;2023-02-10T00:23:07;100278.69;;;-7.40;100.00
64080;BME280;51042;49.696;10.808;2023-02-10T00:25:34;100272.00;;;-7.43;100.00
64080;BME280;51042;49.696;10.808;2023-02-10T00:27:59;100283.22;;;-7.46;100.00
64080;BME280;51042;49.696;10.808;2023-02-10T00:30:25;100283.22;;;-7.46;100.00
64080;BME280;51042;49.696;10.808;2023-02-10T00:32:50;100280.81;;;-7.48;100.00
64080;BME280;51042;49.696;10.808;2023-02-10T00:35:16;100291.50;;;-7.53;100.00
64080;BME280;51042;49.696;10.808;2023-02-10T00:37:42;100294.16;;;-7.58;100.00
64080;BME280;51042;49.696;10.808;2023-02-10T00:40:08;100292.56;;;-7.59;100.00
64080;BME280;51042;49.696;10.808;2023-02-10T00:42:34;100298.16;;;-7.60;100.00
64080;BME280;51042;49.696;10.808;2023-02-10T00:44:59;100289.91;;;-7.64;100.00
64080;BME280;51042;49.696;10.808;2023-02-10T00:47:25;100294.69;;;-7.66;100.00
64080;BME280;51042;49.696;10.808;2023-02-10T00:49:51;100304.31;;;-7.70;100.00
64080;BME280;51042;49.696;10.808;2023-02-10T00:52:17;100292.59;;;-7.69;100.00
64080;BME280;51042;49.696;10.808;2023-02-10T00:54:43;100299.25;;;-7.71;100.00
64080;BME280;51042;49.696;10.808;2023-02-10T00:57:08;100305.88;;;-7.74;100.00
64080;BME280;51042;49.696;10.808;2023-02-10T00:59:34;100312.81;;;-7.73;100.00
64080;BME280;51042;49.696;10.808;2023-02-10T01:01:59;100317.09;;;-7.77;100.00
64080;BME280;51042;49.696;10.808;2023-02-10T01:04:25;100318.72;;;-7.81;100.00
64080;BME280;51042;49.696;10.808;2023-02-10T01:06:50;100319.50;;;-7.80;100.00
64080;BME280;51042;49.696;10.808;2023-02-10T01:09:18;100321.38;;;-7.81;100.00
64080;BME280;51042;49.696;10.808;2023-02-10T01:11:43;100320.81;;;-7.83;100.00
64080;BME280;51042;49.696;10.808;2023-02-10T01:14:09;100324.56;;;-7.84;100.00
64080;BME280;51042;49.696;10.808;2023-02-10T01:16:35;100325.63;;;-7.85;100.00
64080;BME280;51042;49.696;10.808;2023-02-10T01:19:00;100325.09;;;-7.87;100.00
64080;BME280;51042;49.696;10.808;2023-02-10T01:21:27;100329.88;;;-7.84;100.00
64080;BME280;51042;49.696;10.808;2023-02-10T01:24:03;100330.94;;;-7.85;100.00
64080;BME280;51042;49.696;10.808;2023-02-10T01:26:28;100333.88;;;-7.87;100.00
64080;BME280;51042;49.696;10.808;2023-02-10T01:28:54;100337.88;;;-7.89;100.00
64080;BME280;51042;49.696;10.808;2023-02-10T01:31:20;100346.94;;;-7.90;100.00
64080;BME280;51042;49.696;10.808;2023-02-10T01:33:46;100342.94;;;-7.93;100.00
64080;BME280;51042;49.696;10.808;2023-02-10T01:36:15;100344.00;;;-7.94;100.00
64080;BME280;51042;49.696;10.808;2023-02-10T01:38:41;100337.06;;;-7.95;100.00
64080;BME280;51042;49.696;10.808;2023-02-10T01:41:08;100338.38;;;-7.92;100.00
64080;BME280;51042;49.696;10.808;2023-02-10T01:43:52;100334.97;;;-7.93;100.00
64080;BME280;51042;49.696;10.808;2023-02-10T01:46:21;100333.34;;;-7.99;100.00
64080;BME280;51042;49.696;10.808;2023-02-10T01:48:47;100334.66;;;-8.01;100.00
64080;BME280;51042;49.696;10.808;2023-02-10T01:51:15;100329.34;;;-8.01;100.00
64080;BME280;51042;49.696;10.808;2023-02-10T01:53:42;100337.59;;;-8.03;100.00
64080;BME280;51042;49.696;10.808;2023-02-10T01:56:14;100335.97;;;-8.04;100.00
64080;BME280;51042;49.696;10.808;2023-02-10T01:58:41;100331.19;;;-8.02;100.00
64080;BME280;51042;49.696;10.808;2023-02-10T02:01:10;100324.81;;;-8.06;100.00
64080;BME280;51042;49.696;10.808;2023-02-10T02:03:36;100324.00;;;-8.11;100.00
64080;BME280;51042;49.696;10.808;2023-02-10T02:06:01;100327.47;;;-8.11;100.00
64080;BME280;51042;49.696;10.808;2023-02-10T02:08:27;100334.91;;;-8.13;100.00
64080;BME280;51042;49.696;10.808;2023-02-10T02:13:27;100334.38;;;-8.15;100.00
64080;BME280;51042;49.696;10.808;2023-02-10T02:15:56;100338.91;;;-8.15;100.00
64080;BME280;51042;49.696;10.808;2023-02-10T02:19:25;100335.44;;;-8.16;100.00
64080;BME280;51042;49.696;10.808;2023-02-10T02:26:29;100338.63;;;-8.19;100.00
64080;BME280;51042;49.696;10.808;2023-02-10T02:31:39;100345.28;;;-8.21;100.00
64080;BME280;51042;49.696;10.808;2023-02-10T02:34:27;100348.75;;;-8.21;100.00
64080;BME280;51042;49.696;10.808;2023-02-10T02:36:59;100348.50;;;-8.19;100.00
64080;BME280;51042;49.696;10.808;2023-02-10T02:39:26;100346.06;;;-8.21;100.00
64080;BME280;51042;49.696;10.808;2023-02-10T02:44:35;100352.75;;;-8.29;100.00
64080;BME280;51042;49.696;10.808;2023-02-10T02:47:03;100349.53;;;-8.26;100.00
64080;BME280;51042;49.696;10.808;2023-02-10T02:49:34;100353.25;;;-8.27;100.00
64080;BME280;51042;49.696;10.808;2023-02-10T02:52:08;100358.59;;;-8.32;100.00
64080;BME280;51042;49.696;10.808;2023-02-10T02:54:45;100347.41;;;-8.34;100.00
64080;BME280;51042;49.696;10.808;2023-02-10T02:59:50;100349.00;;;-8.38;100.00
64080;BME280;51042;49.696;10.808;2023-02-10T03:02:18;100353.00;;;-8.40;100.00
64080;BME280;51042;49.696;10.808;2023-02-10T03:04:44;100346.09;;;-8.41;100.00
64080;BME280;51042;49.696;10.808;2023-02-10T03:07:10;100344.19;;;-8.46;100.00
64080;BME280;51042;49.696;10.808;2023-02-10T03:09:35;100349.78;;;-8.47;100.00
64080;BME280;51042;49.696;10.808;2023-02-10T03:12:00;100350.31;;;-8.45;100.00
64080;BME280;51042;49.696;10.808;2023-02-10T03:14:26;100347.94;;;-8.47;100.00
64080;BME280;51042;49.696;10.808;2023-02-10T03:16:51;100347.88;;;-8.52;100.00
64080;BME280;51042;49.696;10.808;2023-02-10T03:19:16;100352.69;;;-8.54;100.00
64080;BME280;51042;49.696;10.808;2023-02-10T03:21:42;100354.81;;;-8.56;100.00
64080;BME280;51042;49.696;10.808;2023-02-10T03:24:07;100358.53;;;-8.57;100.00
64080;BME280;51042;49.696;10.808;2023-02-10T03:26:33;100355.06;;;-8.57;100.00
64080;BME280;51042;49.696;10.808;2023-02-10T03:28:59;100362.00;;;-8.56;100.00
64080;BME280;51042;49.696;10.808;2023-02-10T03:31:24;100358.75;;;-8.63;100.00
64080;BME280;51042;49.696;10.808;2023-02-10T03:33:49;100369.38;;;-8.69;100.00
64080;BME280;51042;49.696;10.808;2023-02-10T03:36:14;100361.41;;;-8.69;100.00
64080;BME280;51042;49.696;10.808;2023-02-10T03:38:40;100363.81;;;-8.67;100.00
64080;BME280;51042;49.696;10.808;2023-02-10T03:41:05;100355.03;;;-8.68;100.00
64080;BME280;51042;49.696;10.808;2023-02-10T03:43:30;100350.50;;;-8.67;100.00
64080;BME280;51042;49.696;10.808;2023-02-10T03:45:58;100350.25;;;-8.65;100.00
64080;BME280;51042;49.696;10.808;2023-02-10T03:48:24;100354.47;;;-8.70;100.00
64080;BME280;51042;49.696;10.808;2023-02-10T03:50:51;100366.47;;;-8.72;100.00
64080;BME280;51042;49.696;10.808;2023-02-10T03:53:16;100366.47;;;-8.72;100.00
64080;BME280;51042;49.696;10.808;2023-02-10T03:55:41;100379.22;;;-8.74;100.00
64080;BME280;51042;49.696;10.808;2023-02-10T03:58:06;100381.34;;;-8.76;100.00
64080;BME280;51042;49.696;10.808;2023-02-10T04:00:32;100389.28;;;-8.81;100.00
64080;BME280;51042;49.696;10.808;2023-02-10T04:02:57;100386.09;;;-8.83;100.00
64080;BME280;51042;49.696;10.808;2023-02-10T04:05:22;100387.41;;;-8.81;100.00
64080;BME280;51042;49.696;10.808;2023-02-10T04:07:47;100389.81;;;-8.79;100.00
64080;BME280;51042;49.696;10.808;2023-02-10T04:10:12;100387.69;;;-8.82;100.00
64080;BME280;51042;49.696;10.808;2023-02-10T04:12:38;100398.03;;;-8.86;100.00
64080;BME280;51042;49.696;10.808;2023-02-10T04:15:04;100400.94;;;-8.92;100.00
64080;BME280;51042;49.696;10.808;2023-02-10T04:17:29;100392.16;;;-8.93;100.00
64080;BME280;51042;49.696;10.808;2023-02-10T04:19:55;100407.81;;;-8.96;100.00
64080;BME280;51042;49.696;10.808;2023-02-10T04:22:20;100399.31;;;-8.93;100.00
64080;BME280;51042;49.696;10.808;2023-02-10T04:24:45;100394.53;;;-8.96;100.00
64080;BME280;51042;49.696;10.808;2023-02-10T04:27:10;100402.50;;;-8.96;100.00
64080;BME280;51042;49.696;10.808;2023-02-10T04:29:35;100408.06;;;-8.98;100.00
64080;BME280;51042;49.696;10.808;2023-02-10T04:32:04;100403.00;;;-8.99;100.00
64080;BME280;51042;49.696;10.808;2023-02-10T04:34:29;100409.44;;;-8.95;100.00
64080;BME280;51042;49.696;10.808;2023-02-10T04:36:55;100408.59;;;-9.01;100.00
64080;BME280;51042;49.696;10.808;2023-02-10T04:39:20;100403.53;;;-9.02;100.00
64080;BME280;51042;49.696;10.808;2023-02-10T04:41:45;100410.16;;;-9.05;100.00
64080;BME280;51042;49.696;10.808;2023-02-10T04:44:10;100411.25;;;-9.06;100.00
64080;BME280;51042;49.696;10.808;2023-02-10T04:46:35;100411.50;;;-9.02;100.00
64080;BME280;51042;49.696;10.808;2023-02-10T04:49:01;100416.06;;;-8.98;100.00
64080;BME280;51042;49.696;10.808;2023-02-10T04:51:26;100414.72;;;-9.00;100.00
64080;BME280;51042;49.696;10.808;2023-02-10T04:53:51;100415.78;;;-9.01;100.00
64080;BME280;51042;49.696;10.808;2023-02-10T04:56:16;100418.69;;;-9.03;100.00
64080;BME280;51042;49.696;10.808;2023-02-10T04:58:42;100426.09;;;-9.05;100.00
64080;BME280;51042;49.696;10.808;2023-02-10T05:01:07;100429.03;;;-9.06;100.00
64080;BME280;51042;49.696;10.808;2023-02-10T05:03:33;100432.50;;;-9.06;100.00
64080;BME280;51042;49.696;10.808;2023-02-10T05:05:58;100430.09;;;-9.07;100.00
64080;BME280;51042;49.696;10.808;2023-02-10T05:08:23;100423.41;;;-9.10;100.00
64080;BME280;51042;49.696;10.808;2023-02-10T05:10:49;100435.41;;;-9.07;100.00
64080;BME280;51042;49.696;10.808;2023-02-10T05:13:15;100432.50;;;-9.06;100.00
64080;BME280;51042;49.696;10.808;2023-02-10T05:15:40;100427.44;;;-9.07;100.00
64080;BME280;51042;49.696;10.808;2023-02-10T05:18:05;100435.91;;;-9.11;100.00
64080;BME280;51042;49.696;10.808;2023-02-10T05:20:30;100435.06;;;-9.16;100.00
64080;BME280;51042;49.696;10.808;2023-02-10T05:22:55;100433.19;;;-9.21;100.00
64080;BME280;51042;49.696;10.808;2023-02-10T05:25:21;100434.47;;;-9.23;100.00
64080;BME280;51042;49.696;10.808;2023-02-10T05:27:46;100435.28;;;-9.23;100.00
64080;BME280;51042;49.696;10.808;2023-02-10T05:30:11;100441.69;;;-9.24;100.00
64080;BME280;51042;49.696;10.808;2023-02-10T05:32:38;100443.25;;;-9.23;100.00
64080;BME280;51042;49.696;10.808;2023-02-10T05:35:03;100450.44;;;-9.23;100.00
64080;BME280;51042;49.696;10.808;2023-02-10T05:37:28;100441.41;;;-9.22;100.00
64080;BME280;51042;49.696;10.808;2023-02-10T05:39:53;100451.00;;;-9.21;100.00
64080;BME280;51042;49.696;10.808;2023-02-10T05:42:18;100448.09;;;-9.20;100.00
64080;BME280;51042;49.696;10.808;2023-02-10T05:44:44;100449.16;;;-9.16;100.00
64080;BME280;51042;49.696;10.808;2023-02-10T05:47:09;100457.19;;;-9.11;100.00
64080;BME280;51042;49.696;10.808;2023-02-10T05:49:34;100456.44;;;-9.06;100.00
64080;BME280;51042;49.696;10.808;2023-02-10T05:51:59;100459.63;;;-9.04;100.00
64080;BME280;51042;49.696;10.808;2023-02-10T05:54:24;100449.28;;;-9.00;100.00
64080;BME280;51042;49.696;10.808;2023-02-10T05:56:50;100450.38;;;-8.96;100.00
64080;BME280;51042;49.696;10.808;2023-02-10T05:59:15;100450.63;;;-8.98;100.00
64080;BME280;51042;49.696;10.808;2023-02-10T06:01:41;100459.38;;;-9.02;100.00
64080;BME280;51042;49.696;10.808;2023-02-10T06:04:06;100458.06;;;-9.00;100.00
64080;BME280;51042;49.696;10.808;2023-02-10T06:06:31;100459.41;;;-8.97;100.00
64080;BME280;51042;49.696;10.808;2023-02-10T06:08:57;100467.69;;;-8.94;100.00
64080;BME280;51042;49.696;10.808;2023-02-10T06:11:22;100464.47;;;-8.96;100.00
64080;BME280;51042;49.696;10.808;2023-02-10T06:13:47;100473.00;;;-8.94;100.00
64080;BME280;51042;49.696;10.808;2023-02-10T06:16:12;100478.31;;;-8.94;100.00
64080;BME280;51042;49.696;10.808;2023-02-10T06:18:37;100479.88;;;-8.98;100.00
64080;BME280;51042;49.696;10.808;2023-02-10T06:21:03;100492.09;;;-9.02;100.00
64080;BME280;51042;49.696;10.808;2023-02-10T06:23:28;100487.53;;;-9.06;100.00
64080;BME280;51042;49.696;10.808;2023-02-10T06:25:53;100489.34;;;-9.12;100.00
64080;BME280;51042;49.696;10.808;2023-02-10T06:28:22;100490.41;;;-9.13;100.00
64080;BME280;51042;49.696;10.808;2023-02-10T06:30:47;100492.28;;;-9.09;100.00
64080;BME280;51042;49.696;10.808;2023-02-10T06:33:13;100498.69;;;-9.04;100.00
64080;BME280;51042;49.696;10.808;2023-02-10T06:35:38;100506.19;;;-9.01;100.00
64080;BME280;51042;49.696;10.808;2023-02-10T06:38:03;100495.00;;;-9.03;100.00
64080;BME280;51042;49.696;10.808;2023-02-10T06:40:28;100500.31;;;-9.03;100.00
64080;BME280;51042;49.696;10.808;2023-02-10T06:42:53;100512.03;;;-8.99;100.00
64080;BME280;51042;49.696;10.808;2023-02-10T06:45:19;100520.31;;;-8.96;100.00
64080;BME280;51042;49.696;10.808;2023-02-10T06:47:44;100512.38;;;-8.91;100.00
64080;BME280;51042;49.696;10.808;2023-02-10T06:50:09;100519.06;;;-8.88;100.00
64080;BME280;51042;49.696;10.808;2023-02-10T06:52:34;100511.59;;;-8.86;100.00
64080;BME280;51042;49.696;10.808;2023-02-10T06:55:02;100502.91;;;-8.77;100.00
64080;BME280;51042;49.696;10.808;2023-02-10T06:57:27;100510.94;;;-8.67;100.00
64080;BME280;51042;49.696;10.808;2023-02-10T06:59:53;100517.94;;;-8.55;100.00
64080;BME280;51042;49.696;10.808;2023-02-10T07:02:18;100516.44;;;-8.36;100.00
64080;BME280;51042;49.696;10.808;2023-02-10T07:04:43;100515.16;;;-8.23;100.00
64080;BME280;51042;49.696;10.808;2023-02-10T07:07:08;100520.78;;;-8.10;100.00
64080;BME280;51042;49.696;10.808;2023-02-10T07:09:34;100510.75;;;-7.93;100.00
64080;BME280;51042;49.696;10.808;2023-02-10T07:11:59;100513.72;;;-7.79;100.00
64080;BME280;51042;49.696;10.808;2023-02-10T07:14:24;100513.53;;;-7.57;100.00
64080;BME280;51042;49.696;10.808;2023-02-10T07:16:49;100509.56;;;-7.24;100.00
64080;BME280;51042;49.696;10.808;2023-02-10T07:19:14;100516.72;;;-6.49;100.00
64080;BME280;51042;49.696;10.808;2023-02-10T07:21:40;100515.56;;;-6.18;100.00
64080;BME280;51042;49.696;10.808;2023-02-10T07:24:05;100518.50;;;-6.14;98.56
64080;BME280;51042;49.696;10.808;2023-02-10T07:26:30;100528.38;;;-6.09;96.04
64080;BME280;51042;49.696;10.808;2023-02-10T07:28:55;100517.63;;;-5.94;95.60
64080;BME280;51042;49.696;10.808;2023-02-10T07:31:20;100528.47;;;-5.76;95.08
64080;BME280;51042;49.696;10.808;2023-02-10T07:33:46;100529.97;;;-5.54;94.59
64080;BME280;51042;49.696;10.808;2023-02-10T07:36:11;100529.31;;;-5.36;94.78
64080;BME280;51042;49.696;10.808;2023-02-10T07:38:36;100527.53;;;-5.07;93.50
64080;BME280;51042;49.696;10.808;2023-02-10T07:41:02;100531.25;;;-4.74;92.74
64080;BME280;51042;49.696;10.808;2023-02-10T07:43:27;100524.41;;;-4.56;91.51
64080;BME280;51042;49.696;10.808;2023-02-10T07:45:53;100517.97;;;-4.55;89.68
64080;BME280;51042;49.696;10.808;2023-02-10T07:48:18;100522.41;;;-4.45;89.87
64080;BME280;51042;49.696;10.808;2023-02-10T07:50:44;100523.09;;;-4.35;89.53
64080;BME280;51042;49.696;10.808;2023-02-10T07:53:10;100516.38;;;-4.32;89.74
64080;BME280;51042;49.696;10.808;2023-02-10T07:55:36;100528.50;;;-4.40;89.13
64080;BME280;51042;49.696;10.808;2023-02-10T07:58:01;100526.50;;;-4.24;89.99
64080;BME280;51042;49.696;10.808;2023-02-10T08:00:27;100525.34;;;-4.18;89.37
64080;BME280;51042;49.696;10.808;2023-02-10T08:02:52;100535.16;;;-4.32;88.46
64080;BME280;51042;49.696;10.808;2023-02-10T08:05:17;100535.19;;;-4.37;90.11
64080;BME280;51042;49.696;10.808;2023-02-10T08:07:42;100535.78;;;-4.17;91.15
64080;BME280;51042;49.696;10.808;2023-02-10T08:10:08;100531.53;;;-4.18;90.84
64080;BME280;51042;49.696;10.808;2023-02-10T08:12:33;100533.09;;;-4.17;91.27
64080;BME280;51042;49.696;10.808;2023-02-10T08:14:58;100543.78;;;-4.12;91.83
64080;BME280;51042;49.696;10.808;2023-02-10T08:17:23;100539.25;;;-3.92;92.90
64080;BME280;51042;49.696;10.808;2023-02-10T08:19:48;100542.03;;;-3.79;93.32
64080;BME280;51042;49.696;10.808;2023-02-10T08:22:13;100539.88;;;-3.77;92.77
64080;BME280;51042;49.696;10.808;2023-02-10T08:24:39;100538.84;;;-3.81;93.23
64080;BME280;51042;49.696;10.808;2023-02-10T08:27:04;100539.16;;;-3.82;94.17
64080;BME280;51042;49.696;10.808;2023-02-10T08:29:29;100548.31;;;-3.64;94.53
64080;BME280;51042;49.696;10.808;2023-02-10T08:31:54;100545.41;;;-3.49;93.77
64080;BME280;51042;49.696;10.808;2023-02-10T08:34:20;100535.25;;;-3.34;93.84
64080;BME280;51042;49.696;10.808;2023-02-10T08:36:45;100535.13;;;-3.23;93.06
64080;BME280;51042;49.696;10.808;2023-02-10T08:39:11;100537.31;;;-3.25;92.38
64080;BME280;51042;49.696;10.808;2023-02-10T08:41:37;100542.16;;;-3.46;94.01
64080;BME280;51042;49.696;10.808;2023-02-10T08:44:02;100541.47;;;-3.57;94.74
64080;BME280;51042;49.696;10.808;2023-02-10T08:46:28;100541.22;;;-3.55;94.45
64080;BME280;51042;49.696;10.808;2023-02-10T08:48:53;100545.28;;;-3.58;95.18
64080;BME280;51042;49.696;10.808;2023-02-10T08:51:18;100544.63;;;-3.50;96.53
64080;BME280;51042;49.696;10.808;2023-02-10T08:53:44;100555.97;;;-3.34;96.04
64080;BME280;51042;49.696;10.808;2023-02-10T08:56:10;100549.13;;;-3.26;95.86
64080;BME280;51042;49.696;10.808;2023-02-10T08:58:36;100549.84;;;-3.21;95.13
64080;BME280;51042;49.696;10.808;2023-02-10T09:01:07;100551.38;;;-3.34;94.78
64080;BME280;51042;49.696;10.808;2023-02-10T09:03:32;100560.09;;;-3.42;96.65
64080;BME280;51042;49.696;10.808;2023-02-10T09:05:58;100566.53;;;-3.43;97.43
64080;BME280;51042;49.696;10.808;2023-02-10T09:08:23;100566.19;;;-3.36;97.70
64080;BME280;51042;49.696;10.808;2023-02-10T09:10:48;100572.09;;;-3.39;98.51
64080;BME280;51042;49.696;10.808;2023-02-10T09:13:14;100572.19;;;-3.44;98.33
64080;BME280;51042;49.696;10.808;2023-02-10T09:15:39;100566.00;;;-3.63;98.95
64080;BME280;51042;49.696;10.808;2023-02-10T09:18:05;100583.41;;;-3.61;99.90
64080;BME280;51042;49.696;10.808;2023-02-10T09:20:31;100578.63;;;-3.45;100.00
64080;BME280;51042;49.696;10.808;2023-02-10T09:22:56;100577.81;;;-3.22;100.00
64080;BME280;51042;49.696;10.808;2023-02-10T09:25:22;100572.13;;;-3.20;98.51
64080;BME280;51042;49.696;10.808;2023-02-10T09:27:47;100583.22;;;-3.08;99.02
64080;BME280;51042;49.696;10.808;2023-02-10T09:30:12;100570.75;;;-2.99;99.17
64080;BME280;51042;49.696;10.808;2023-02-10T09:32:37;100576.97;;;-3.04;99.64
64080;BME280;51042;49.696;10.808;2023-02-10T09:35:03;100573.19;;;-3.03;99.51
64080;BME280;51042;49.696;10.808;2023-02-10T09:37:28;100582.34;;;-3.04;99.55
64080;BME280;51042;49.696;10.808;2023-02-10T09:39:53;100580.78;;;-3.05;100.00
64080;BME280;51042;49.696;10.808;2023-02-10T09:42:26;100587.50;;;-3.07;100.00
64080;BME280;51042;49.696;10.808;2023-02-10T09:44:55;100586.06;;;-3.00;100.00
64080;BME280;51042;49.696;10.808;2023-02-10T09:49:56;100593.66;;;-2.69;100.00
64080;BME280;51042;49.696;10.808;2023-02-10T09:52:29;100600.66;;;-2.55;100.00
64080;BME280;51042;49.696;10.808;2023-02-10T09:54:57;100610.84;;;-2.52;98.56
64080;BME280;51042;49.696;10.808;2023-02-10T09:57:27;100599.94;;;-2.60;98.68
64080;BME280;51042;49.696;10.808;2023-02-10T09:59:57;100604.44;;;-2.56;98.27
64080;BME280;51042;49.696;10.808;2023-02-10T10:02:35;100601.56;;;-2.59;97.71
64080;BME280;51042;49.696;10.808;2023-02-10T10:05:15;100605.31;;;-2.60;98.41
64080;BME280;51042;49.696;10.808;2023-02-10T10:07:43;100609.88;;;-2.42;98.92
64080;BME280;51042;49.696;10.808;2023-02-10T10:12:47;100602.41;;;-1.99;98.49
64080;BME280;51042;49.696;10.808;2023-02-10T10:15:16;100607.97;;;-1.82;97.94
64080;BME280;51042;49.696;10.808;2023-02-10T10:20:18;100609.78;;;-1.63;96.38
64080;BME280;51042;49.696;10.808;2023-02-10T10:27:58;100604.00;;;-1.57;92.03
64080;BME280;51042;49.696;10.808;2023-02-10T10:30:40;100610.28;;;-1.61;92.70
64080;BME280;51042;49.696;10.808;2023-02-10T10:35:52;100598.28;;;-1.42;92.45
64080;BME280;51042;49.696;10.808;2023-02-10T10:38:21;100607.75;;;-1.31;92.82
64080;BME280;51042;49.696;10.808;2023-02-10T10:40:47;100607.84;;;-1.22;93.97
64080;BME280;51042;49.696;10.808;2023-02-10T10:43:16;100603.53;;;-1.09;93.18
64080;BME280;51042;49.696;10.808;2023-02-10T10:45:43;100602.97;;;-1.20;91.03
64080;BME280;51042;49.696;10.808;2023-02-10T10:48:14;100600.06;;;-1.24;90.56
64080;BME280;51042;49.696;10.808;2023-02-10T10:50:40;100599.59;;;-1.26;90.90
64080;BME280;51042;49.696;10.808;2023-02-10T10:53:40;100586.81;;;-1.20;92.11
64080;BME280;51042;49.696;10.808;2023-02-10T10:55:57;100592.66;;;-1.18;91.63
64080;BME280;51042;49.696;10.808;2023-02-10T10:58:28;100579.66;;;-1.02;92.59
64080;BME280;51042;49.696;10.808;2023-02-10T11:00:59;100580.91;;;-0.86;92.22
64080;BME280;51042;49.696;10.808;2023-02-10T11:03:25;100582.75;;;-0.73;91.26
64080;BME280;51042;49.696;10.808;2023-02-10T11:08:38;100576.38;;;-0.55;89.64
64080;BME280;51042;49.696;10.808;2023-02-10T11:11:07;100577.84;;;-0.49;89.52
64080;BME280;51042;49.696;10.808;2023-02-10T11:13:35;100582.63;;;-0.46;89.48
64080;BME280;51042;49.696;10.808;2023-02-10T11:16:03;100580.84;;;-0.50;89.04
64080;BME280;51042;49.696;10.808;2023-02-10T11:18:29;100576.06;;;-0.53;88.65
64080;BME280;51042;49.696;10.808;2023-02-10T11:23:19;100577.16;;;-0.32;88.31
64080;BME280;51042;49.696;10.808;2023-02-10T11:25:46;100571.91;;;-0.28;88.03
64080;BME280;51042;49.696;10.808;2023-02-10T11:28:19;100572.78;;;-0.19;87.97
64080;BME280;51042;49.696;10.808;2023-02-10T11:30:46;100575.66;;;-0.16;87.67
64080;BME280;51042;49.696;10.808;2023-02-10T11:33:19;100568.22;;;-0.10;87.60
64080;BME280;51042;49.696;10.808;2023-02-10T11:35:49;100573.75;;;-0.15;87.40
64080;BME280;51042;49.696;10.808;2023-02-10T11:38:19;100576.81;;;-0.08;86.27
64080;BME280;51042;49.696;10.808;2023-02-10T11:40:55;100576.06;;;-0.53;86.17
64080;BME280;51042;49.696;10.808;2023-02-10T11:43:25;100577.75;;;-0.35;88.33
64080;BME280;51042;49.696;10.808;2023-02-10T11:45:52;100585.94;;;-0.18;87.77
64080;BME280;51042;49.696;10.808;2023-02-10T11:48:19;100571.63;;;-0.27;88.05
64080;BME280;51042;49.696;10.808;2023-02-10T11:50:44;100576.00;;;-0.39;88.62
64080;BME280;51042;49.696;10.808;2023-02-10T11:53:25;100562.19;;;-0.38;88.50
64080;BME280;51042;49.696;10.808;2023-02-10T11:55:53;100565.03;;;-0.43;88.61
64080;BME280;51042;49.696;10.808;2023-02-10T12:01:14;100566.16;;;-0.35;89.64
64080;BME280;51042;49.696;10.808;2023-02-10T12:03:56;100562.50;;;-0.39;89.74
64080;BME280;51042;49.696;10.808;2023-02-10T12:06:36;100566.72;;;-0.47;89.47
64080;BME280;51042;49.696;10.808;2023-02-10T12:09:05;100559.38;;;-0.33;88.59
64080;BME280;51042;49.696;10.808;2023-02-10T12:40:49;100535.25;;;0.02;88.26
64080;BME280;51042;49.696;10.808;2023-02-10T12:43:29;100535.63;;;0.17;87.58
64080;BME280;51042;49.696;10.808;2023-02-10T12:48:41;100534.78;;;-0.01;87.92
64080;BME280;51042;49.696;10.808;2023-02-10T12:51:22;100534.13;;;-0.06;88.62
64080;BME280;51042;49.696;10.808;2023-02-10T12:53:55;100540.78;;;-0.04;88.69
64080;BME280;51042;49.696;10.808;2023-02-10T12:56:23;100533.94;;;-0.10;88.93
64080;BME280;51042;49.696;10.808;2023-02-10T12:58:53;100538.13;;;0.05;88.73
64080;BME280;51042;49.696;10.808;2023-02-10T13:01:31;100535.88;;;0.07;87.89
64080;BME280;51042;49.696;10.808;2023-02-10T13:05:02;100531.28;;;0.08;87.72
64080;BME280;51042;49.696;10.808;2023-02-10T13:06:56;100530.03;;;0.14;87.72
64080;BME280;51042;49.696;10.808;2023-02-10T13:09:34;100519.75;;;0.24;87.49
64080;BME280;51042;49.696;10.808;2023-02-10T13:14:39;100519.59;;;0.21;86.57
64080;BME280;51042;49.696;10.808;2023-02-10T13:17:05;100516.44;;;0.36;87.16
64080;BME280;51042;49.696;10.808;2023-02-10T13:22:08;100506.16;;;0.81;85.70
64080;BME280;51042;49.696;10.808;2023-02-10T13:24:48;100506.00;;;0.86;84.15
64080;BME280;51042;49.696;10.808;2023-02-10T13:29:50;100515.38;;;0.63;84.73
64080;BME280;51042;49.696;10.808;2023-02-10T13:32:25;100506.03;;;0.77;85.17
64080;BME280;51042;49.696;10.808;2023-02-10T13:34:53;100500.91;;;0.85;84.06
64080;BME280;51042;49.696;10.808;2023-02-10T13:39:55;100503.44;;;0.98;84.42
64080;BME280;51042;49.696;10.808;2023-02-10T13:42:28;100507.56;;;0.96;83.05
64080;BME280;51042;49.696;10.808;2023-02-10T13:49:53;100502.00;;;1.18;83.56
64080;BME280;51042;49.696;10.808;2023-02-10T13:52:21;100500.09;;;1.18;84.31
64080;BME280;51042;49.696;10.808;2023-02-10T13:54:56;100493.38;;;1.33;83.68
64080;BME280;51042;49.696;10.808;2023-02-10T13:57:26;100497.81;;;1.46;82.47
64080;BME280;51042;49.696;10.808;2023-02-10T13:59:51;100496.34;;;1.57;83.35
64080;BME280;51042;49.696;10.808;2023-02-10T14:02:21;100491.03;;;1.70;82.36